sensor_id;sensor_type;location;lat;lon;timestamp;P1;durP1;ratioP1;P2;durP2;ratioP2
47483;SDS011;54076;50.322;18.650;2023-03-25T00:01:53;8.30;;;3.80;;
47483;SDS011;54076;50.322;18.650;2023-03-25T00:06:55;6.90;;;3.20;;
47483;SDS011;54076;50.322;18.650;2023-03-25T00:11:56;6.70;;;3.60;;
47483;SDS011;54076;50.322;18.650;2023-03-25T00:16:58;6.90;;;3.90;;
47483;SDS011;54076;50.322;18.650;2023-03-25T00:22:00;7.30;;;3.30;;
47483;SDS011;54076;50.322;18.650;2023-03-25T00:27:02;8.30;;;3.70;;
47483;SDS011;54076;50.322;18.650;2023-03-25T00:32:03;7.90;;;4.30;;
47483;SDS011;54076;50.322;18.650;2023-03-25T00:37:05;8.20;;;4.10;;
47483;SDS011;54076;50.322;18.650;2023-03-25T00:42:06;7.50;;;4.30;;
47483;SDS011;54076;50.322;18.650;2023-03-25T00:47:10;7.70;;;4.30;;
47483;SDS011;54076;50.322;18.650;2023-03-25T00:52:16;8.00;;;3.90;;
47483;SDS011;54076;50.322;18.650;2023-03-25T00:57:18;7.00;;;3.60;;
47483;SDS011;54076;50.322;18.650;2023-03-25T01:02:19;6.90;;;3.50;;
47483;SDS011;54076;50.322;18.650;2023-03-25T01:07:21;6.10;;;3.20;;
47483;SDS011;54076;50.322;18.650;2023-03-25T01:12:22;7.30;;;3.40;;
47483;SDS011;54076;50.322;18.650;2023-03-25T01:17:23;6.90;;;2.80;;
47483;SDS011;54076;50.322;18.650;2023-03-25T01:22:24;6.90;;;3.10;;
47483;SDS011;54076;50.322;18.650;2023-03-25T01:27:25;8.10;;;3.20;;
47483;SDS011;54076;50.322;18.650;2023-03-25T01:32:27;6.10;;;2.70;;
47483;SDS011;54076;50.322;18.650;2023-03-25T01:37:29;7.70;;;2.90;;
47483;SDS011;54076;50.322;18.650;2023-03-25T01:42:33;5.80;;;3.00;;
47483;SDS011;54076;50.322;18.650;2023-03-25T01:47:35;6.10;;;2.60;;
47483;SDS011;54076;50.322;18.650;2023-03-25T01:52:36;6.20;;;2.60;;
47483;SDS011;54076;50.322;18.650;2023-03-25T01:57:39;5.60;;;2.70;;
47483;SDS011;54076;50.322;18.650;2023-03-25T02:02:45;7.40;;;3.10;;
47483;SDS011;54076;50.322;18.650;2023-03-25T02:07:48;7.30;;;3.20;;
47483;SDS011;54076;50.322;18.650;2023-03-25T02:12:49;7.30;;;3.30;;
47483;SDS011;54076;50.322;18.650;2023-03-25T02:29:22;6.00;;;2.90;;
47483;SDS011;54076;50.322;18.650;2023-03-25T02:45:43;5.90;;;2.90;;
47483;SDS011;54076;50.322;18.650;2023-03-25T02:50:50;12.40;;;3.40;;
47483;SDS011;54076;50.322;18.650;2023-03-25T02:55:57;8.30;;;3.20;;
47483;SDS011;54076;50.322;18.650;2023-03-25T03:01:01;6.20;;;3.20;;
47483;SDS011;54076;50.322;18.650;2023-03-25T03:06:03;6.70;;;3.00;;
47483;SDS011;54076;50.322;18.650;2023-03-25T03:11:16;6.00;;;3.50;;
47483;SDS011;54076;50.322;18.650;2023-03-25T03:28:06;6.90;;;3.50;;
47483;SDS011;54076;50.322;18.650;2023-03-25T03:33:47;7.00;;;3.30;;
47483;SDS011;54076;50.322;18.650;2023-03-25T03:38:53;7.80;;;3.90;;
47483;SDS011;54076;50.322;18.650;2023-03-25T03:44:03;8.40;;;3.80;;
47483;SDS011;54076;50.322;18.650;2023-03-25T03:49:10;6.70;;;3.50;;
47483;SDS011;54076;50.322;18.650;2023-03-25T03:54:23;7.70;;;3.60;;
47483;SDS011;54076;50.322;18.650;2023-03-25T04:04:52;7.30;;;3.40;;
47483;SDS011;54076;50.322;18.650;2023-03-25T04:10:00;10.20;;;3.50;;
47483;SDS011;54076;50.322;18.650;2023-03-25T04:15:14;7.80;;;2.80;;
47483;SDS011;54076;50.322;18.650;2023-03-25T04:20:20;6.50;;;2.80;;
47483;SDS011;54076;50.322;18.650;2023-03-25T04:25:24;7.20;;;3.10;;
47483;SDS011;54076;50.322;18.650;2023-03-25T04:30:27;7.30;;;3.50;;
47483;SDS011;54076;50.322;18.650;2023-03-25T04:35:29;7.60;;;3.40;;
47483;SDS011;54076;50.322;18.650;2023-03-25T04:40:32;8.00;;;2.80;;
47483;SDS011;54076;50.322;18.650;2023-03-25T04:45:34;6.40;;;3.10;;
47483;SDS011;54076;50.322;18.650;2023-03-25T04:50:36;7.60;;;3.40;;
47483;SDS011;54076;50.322;18.650;2023-03-25T04:55:37;7.30;;;3.50;;
47483;SDS011;54076;50.322;18.650;2023-03-25T05:00:39;8.20;;;3.10;;
47483;SDS011;54076;50.322;18.650;2023-03-25T05:05:42;8.80;;;3.70;;
47483;SDS011;54076;50.322;18.650;2023-03-25T05:10:43;6.80;;;3.30;;
47483;SDS011;54076;50.322;18.650;2023-03-25T05:15:44;7.00;;;3.70;;
47483;SDS011;54076;50.322;18.650;2023-03-25T05:20:45;6.20;;;3.10;;
47483;SDS011;54076;50.322;18.650;2023-03-25T05:25:50;7.20;;;3.20;;
47483;SDS011;54076;50.322;18.650;2023-03-25T05:30:51;6.50;;;3.10;;
47483;SDS011;54076;50.322;18.650;2023-03-25T05:35:52;7.90;;;3.20;;
47483;SDS011;54076;50.322;18.650;2023-03-25T05:40:53;7.50;;;3.40;;
47483;SDS011;54076;50.322;18.650;2023-03-25T05:45:54;8.20;;;3.50;;
47483;SDS011;54076;50.322;18.650;2023-03-25T05:50:55;8.30;;;3.40;;
47483;SDS011;54076;50.322;18.650;2023-03-25T05:55:56;6.50;;;3.20;;
47483;SDS011;54076;50.322;18.650;2023-03-25T06:00:58;8.00;;;3.30;;
47483;SDS011;54076;50.322;18.650;2023-03-25T06:06:02;9.70;;;3.80;;
47483;SDS011;54076;50.322;18.650;2023-03-25T06:11:09;8.40;;;3.80;;
47483;SDS011;54076;50.322;18.650;2023-03-25T06:16:13;6.80;;;3.80;;
47483;SDS011;54076;50.322;18.650;2023-03-25T06:21:29;9.40;;;4.00;;
47483;SDS011;54076;50.322;18.650;2023-03-25T06:26:32;7.70;;;3.10;;
47483;SDS011;54076;50.322;18.650;2023-03-25T06:31:34;11.10;;;4.20;;
47483;SDS011;54076;50.322;18.650;2023-03-25T06:36:35;8.70;;;3.90;;
47483;SDS011;54076;50.322;18.650;2023-03-25T06:41:36;9.80;;;4.10;;
47483;SDS011;54076;50.322;18.650;2023-03-25T06:46:37;9.90;;;3.70;;
47483;SDS011;54076;50.322;18.650;2023-03-25T06:51:38;8.30;;;4.20;;
47483;SDS011;54076;50.322;18.650;2023-03-25T06:56:40;9.50;;;4.20;;
47483;SDS011;54076;50.322;18.650;2023-03-25T07:01:41;9.40;;;4.30;;
47483;SDS011;54076;50.322;18.650;2023-03-25T07:06:42;9.00;;;4.50;;
47483;SDS011;54076;50.322;18.650;2023-03-25T07:11:43;7.90;;;4.20;;
47483;SDS011;54076;50.322;18.650;2023-03-25T07:16:45;9.70;;;4.80;;
47483;SDS011;54076;50.322;18.650;2023-03-25T07:21:46;11.10;;;4.50;;
47483;SDS011;54076;50.322;18.650;2023-03-25T07:26:47;9.90;;;4.50;;
47483;SDS011;54076;50.322;18.650;2023-03-25T07:31:48;10.70;;;5.50;;
47483;SDS011;54076;50.322;18.650;2023-03-25T07:36:49;11.10;;;4.30;;
47483;SDS011;54076;50.322;18.650;2023-03-25T07:41:51;10.70;;;4.60;;
47483;SDS011;54076;50.322;18.650;2023-03-25T07:46:52;16.40;;;8.70;;
47483;SDS011;54076;50.322;18.650;2023-03-25T07:51:53;9.70;;;4.70;;
47483;SDS011;54076;50.322;18.650;2023-03-25T07:56:54;9.00;;;3.90;;
47483;SDS011;54076;50.322;18.650;2023-03-25T08:01:55;7.70;;;4.00;;
47483;SDS011;54076;50.322;18.650;2023-03-25T08:06:57;11.50;;;5.10;;
47483;SDS011;54076;50.322;18.650;2023-03-25T08:11:58;8.10;;;4.00;;
47483;SDS011;54076;50.322;18.650;2023-03-25T08:16:59;9.00;;;4.10;;
47483;SDS011;54076;50.322;18.650;2023-03-25T08:22:00;9.40;;;3.80;;
47483;SDS011;54076;50.322;18.650;2023-03-25T08:27:01;11.70;;;5.10;;
47483;SDS011;54076;50.322;18.650;2023-03-25T08:32:02;7.80;;;3.70;;
47483;SDS011;54076;50.322;18.650;2023-03-25T08:37:04;6.70;;;3.20;;
47483;SDS011;54076;50.322;18.650;2023-03-25T08:42:07;12.00;;;4.60;;
47483;SDS011;54076;50.322;18.650;2023-03-25T08:47:09;10.40;;;4.70;;
47483;SDS011;54076;50.322;18.650;2023-03-25T08:52:12;8.30;;;3.70;;
47483;SDS011;54076;50.322;18.650;2023-03-25T08:57:13;6.10;;;2.30;;
47483;SDS011;54076;50.322;18.650;2023-03-25T09:02:14;7.80;;;2.80;;
47483;SDS011;54076;50.322;18.650;2023-03-25T09:07:15;7.60;;;3.40;;
47483;SDS011;54076;50.322;18.650;2023-03-25T09:12:19;6.70;;;2.40;;
47483;SDS011;54076;50.322;18.650;2023-03-25T09:17:20;12.80;;;5.20;;
47483;SDS011;54076;50.322;18.650;2023-03-25T09:22:21;5.90;;;2.50;;
47483;SDS011;54076;50.322;18.650;2023-03-25T09:27:22;7.30;;;2.90;;
47483;SDS011;54076;50.322;18.650;2023-03-25T09:32:24;7.10;;;3.60;;
47483;SDS011;54076;50.322;18.650;2023-03-25T09:37:25;7.80;;;3.60;;
47483;SDS011;54076;50.322;18.650;2023-03-25T09:48:03;7.50;;;2.60;;
47483;SDS011;54076;50.322;18.650;2023-03-25T09:58:33;7.70;;;2.70;;
47483;SDS011;54076;50.322;18.650;2023-03-25T10:26:30;3.70;;;1.70;;
47483;SDS011;54076;50.322;18.650;2023-03-25T10:31:54;4.00;;;1.70;;
47483;SDS011;54076;50.322;18.650;2023-03-25T10:36:59;5.10;;;2.00;;
47483;SDS011;54076;50.322;18.650;2023-03-25T10:42:34;4.00;;;1.90;;
47483;SDS011;54076;50.322;18.650;2023-03-25T10:47:39;4.90;;;2.00;;
47483;SDS011;54076;50.322;18.650;2023-03-25T10:52:44;5.10;;;2.50;;
47483;SDS011;54076;50.322;18.650;2023-03-25T10:57:47;5.70;;;2.40;;
47483;SDS011;54076;50.322;18.650;2023-03-25T11:02:49;5.20;;;2.10;;
47483;SDS011;54076;50.322;18.650;2023-03-25T11:07:59;4.80;;;1.90;;
47483;SDS011;54076;50.322;18.650;2023-03-25T11:13:01;6.00;;;2.30;;
47483;SDS011;54076;50.322;18.650;2023-03-25T11:18:19;6.20;;;2.70;;
47483;SDS011;54076;50.322;18.650;2023-03-25T11:23:35;7.40;;;2.70;;
47483;SDS011;54076;50.322;18.650;2023-03-25T11:28:43;4.80;;;2.50;;
47483;SDS011;54076;50.322;18.650;2023-03-25T11:39:15;6.40;;;2.30;;
47483;SDS011;54076;50.322;18.650;2023-03-25T11:49:23;5.70;;;2.30;;
47483;SDS011;54076;50.322;18.650;2023-03-25T11:54:26;4.70;;;2.30;;
47483;SDS011;54076;50.322;18.650;2023-03-25T11:59:44;6.10;;;2.60;;
47483;SDS011;54076;50.322;18.650;2023-03-25T12:04:58;6.30;;;2.20;;
47483;SDS011;54076;50.322;18.650;2023-03-25T12:10:05;4.90;;;2.10;;
47483;SDS011;54076;50.322;18.650;2023-03-25T12:15:26;5.40;;;2.20;;
47483;SDS011;54076;50.322;18.650;2023-03-25T12:26:16;5.40;;;2.00;;
47483;SDS011;54076;50.322;18.650;2023-03-25T12:37:27;4.50;;;2.00;;
47483;SDS011;54076;50.322;18.650;2023-03-25T12:42:45;5.00;;;2.40;;
47483;SDS011;54076;50.322;18.650;2023-03-25T12:48:22;4.50;;;1.70;;
47483;SDS011;54076;50.322;18.650;2023-03-25T13:20:35;4.20;;;1.10;;
47483;SDS011;54076;50.322;18.650;2023-03-25T13:30:53;3.20;;;1.10;;
47483;SDS011;54076;50.322;18.650;2023-03-25T13:41:41;3.20;;;1.20;;
47483;SDS011;54076;50.322;18.650;2023-03-25T13:51:53;4.30;;;1.10;;
47483;SDS011;54076;50.322;18.650;2023-03-25T14:13:31;3.90;;;1.40;;
47483;SDS011;54076;50.322;18.650;2023-03-25T14:18:45;3.40;;;1.30;;
47483;SDS011;54076;50.322;18.650;2023-03-25T14:23:57;4.80;;;1.70;;
47483;SDS011;54076;50.322;18.650;2023-03-25T14:29:46;5.30;;;1.60;;
47483;SDS011;54076;50.322;18.650;2023-03-25T14:34:56;6.30;;;2.40;;
47483;SDS011;54076;50.322;18.650;2023-03-25T14:40:51;3.40;;;1.30;;
47483;SDS011;54076;50.322;18.650;2023-03-25T14:46:05;3.70;;;1.10;;
47483;SDS011;54076;50.322;18.650;2023-03-25T14:56:34;3.90;;;1.40;;
47483;SDS011;54076;50.322;18.650;2023-03-25T15:01:46;3.70;;;1.30;;
47483;SDS011;54076;50.322;18.650;2023-03-25T15:06:48;4.00;;;1.30;;
47483;SDS011;54076;50.322;18.650;2023-03-25T15:12:02;4.30;;;1.30;;
47483;SDS011;54076;50.322;18.650;2023-03-25T15:17:10;5.30;;;1.80;;
47483;SDS011;54076;50.322;18.650;2023-03-25T15:22:31;6.90;;;2.40;;
47483;SDS011;54076;50.322;18.650;2023-03-25T15:38:59;9.30;;;3.80;;
47483;SDS011;54076;50.322;18.650;2023-03-25T15:44:56;9.20;;;3.10;;
47483;SDS011;54076;50.322;18.650;2023-03-25T15:55:38;7.50;;;3.20;;
47483;SDS011;54076;50.322;18.650;2023-03-25T16:00:47;7.00;;;3.00;;
47483;SDS011;54076;50.322;18.650;2023-03-25T16:05:59;4.50;;;1.90;;
47483;SDS011;54076;50.322;18.650;2023-03-25T16:16:19;5.00;;;2.00;;
47483;SDS011;54076;50.322;18.650;2023-03-25T16:21:21;5.70;;;1.80;;
47483;SDS011;54076;50.322;18.650;2023-03-25T16:26:40;5.60;;;1.80;;
47483;SDS011;54076;50.322;18.650;2023-03-25T16:36:56;4.60;;;1.90;;
47483;SDS011;54076;50.322;18.650;2023-03-25T16:42:05;5.40;;;2.00;;
47483;SDS011;54076;50.322;18.650;2023-03-25T16:47:15;4.80;;;2.40;;
47483;SDS011;54076;50.322;18.650;2023-03-25T16:52:21;5.00;;;2.10;;
47483;SDS011;54076;50.322;18.650;2023-03-25T16:57:28;4.00;;;1.70;;
47483;SDS011;54076;50.322;18.650;2023-03-25T17:02:38;7.60;;;3.00;;
47483;SDS011;54076;50.322;18.650;2023-03-25T17:07:41;4.10;;;1.70;;
47483;SDS011;54076;50.322;18.650;2023-03-25T17:13:14;7.90;;;1.90;;
47483;SDS011;54076;50.322;18.650;2023-03-25T17:18:15;5.10;;;2.40;;
47483;SDS011;54076;50.322;18.650;2023-03-25T17:23:25;4.80;;;2.30;;
47483;SDS011;54076;50.322;18.650;2023-03-25T17:28:42;4.40;;;1.90;;
47483;SDS011;54076;50.322;18.650;2023-03-25T17:33:52;7.10;;;2.80;;
47483;SDS011;54076;50.322;18.650;2023-03-25T17:38:59;8.80;;;3.60;;
47483;SDS011;54076;50.322;18.650;2023-03-25T17:44:03;8.60;;;3.50;;
47483;SDS011;54076;50.322;18.650;2023-03-25T17:49:19;15.40;;;6.50;;
47483;SDS011;54076;50.322;18.650;2023-03-25T17:54:20;10.80;;;3.80;;
47483;SDS011;54076;50.322;18.650;2023-03-25T17:59:22;13.00;;;5.30;;
47483;SDS011;54076;50.322;18.650;2023-03-25T18:04:26;11.70;;;4.80;;
47483;SDS011;54076;50.322;18.650;2023-03-25T18:09:28;13.10;;;4.40;;
47483;SDS011;54076;50.322;18.650;2023-03-25T18:14:29;10.20;;;3.80;;
47483;SDS011;54076;50.322;18.650;2023-03-25T18:19:30;6.80;;;2.50;;
47483;SDS011;54076;50.322;18.650;2023-03-25T18:24:31;5.50;;;2.40;;
47483;SDS011;54076;50.322;18.650;2023-03-25T18:29:33;10.70;;;4.60;;
47483;SDS011;54076;50.322;18.650;2023-03-25T18:34:36;6.60;;;2.40;;
47483;SDS011;54076;50.322;18.650;2023-03-25T18:39:37;5.50;;;2.40;;
47483;SDS011;54076;50.322;18.650;2023-03-25T18:44:39;9.40;;;3.80;;
47483;SDS011;54076;50.322;18.650;2023-03-25T18:49:41;12.70;;;5.20;;
47483;SDS011;54076;50.322;18.650;2023-03-25T18:54:42;11.10;;;4.40;;
47483;SDS011;54076;50.322;18.650;2023-03-25T18:59:43;12.00;;;4.60;;
47483;SDS011;54076;50.322;18.650;2023-03-25T19:04:45;8.30;;;4.00;;
47483;SDS011;54076;50.322;18.650;2023-03-25T19:09:46;12.20;;;4.80;;
47483;SDS011;54076;50.322;18.650;2023-03-25T19:14:48;11.40;;;4.90;;
47483;SDS011;54076;50.322;18.650;2023-03-25T19:19:49;10.20;;;4.80;;
47483;SDS011;54076;50.322;18.650;2023-03-25T19:24:50;10.80;;;5.90;;
47483;SDS011;54076;50.322;18.650;2023-03-25T19:29:51;11.20;;;4.90;;
47483;SDS011;54076;50.322;18.650;2023-03-25T19:34:54;15.80;;;6.80;;
47483;SDS011;54076;50.322;18.650;2023-03-25T19:39:56;18.10;;;7.50;;
47483;SDS011;54076;50.322;18.650;2023-03-25T19:44:57;19.70;;;7.70;;
47483;SDS011;54076;50.322;18.650;2023-03-25T19:49:59;19.10;;;7.90;;
47483;SDS011;54076;50.322;18.650;2023-03-25T19:55:00;19.80;;;8.40;;
47483;SDS011;54076;50.322;18.650;2023-03-25T20:00:07;17.60;;;7.40;;
47483;SDS011;54076;50.322;18.650;2023-03-25T20:05:14;18.90;;;7.90;;
47483;SDS011;54076;50.322;18.650;2023-03-25T20:10:18;17.20;;;7.70;;
47483;SDS011;54076;50.322;18.650;2023-03-25T20:15:22;19.20;;;8.80;;
47483;SDS011;54076;50.322;18.650;2023-03-25T20:20:25;13.30;;;6.00;;
47483;SDS011;54076;50.322;18.650;2023-03-25T20:25:26;11.40;;;4.70;;
47483;SDS011;54076;50.322;18.650;2023-03-25T20:30:27;10.00;;;4.40;;
47483;SDS011;54076;50.322;18.650;2023-03-25T20:35:29;10.60;;;4.10;;
47483;SDS011;54076;50.322;18.650;2023-03-25T20:40:31;12.00;;;4.90;;
47483;SDS011;54076;50.322;18.650;2023-03-25T20:45:32;12.90;;;5.20;;
47483;SDS011;54076;50.322;18.650;2023-03-25T20:50:33;11.10;;;4.50;;
47483;SDS011;54076;50.322;18.650;2023-03-25T20:55:34;7.70;;;3.20;;
47483;SDS011;54076;50.322;18.650;2023-03-25T21:00:35;7.00;;;2.90;;
47483;SDS011;54076;50.322;18.650;2023-03-25T21:05:39;5.20;;;1.90;;
47483;SDS011;54076;50.322;18.650;2023-03-25T21:10:47;4.90;;;1.70;;
47483;SDS011;54076;50.322;18.650;2023-03-25T21:15:52;4.20;;;1.50;;
47483;SDS011;54076;50.322;18.650;2023-03-25T21:20:56;3.70;;;1.70;;
47483;SDS011;54076;50.322;18.650;2023-03-25T21:26:03;3.90;;;1.70;;
47483;SDS011;54076;50.322;18.650;2023-03-25T21:31:10;5.60;;;1.60;;
47483;SDS011;54076;50.322;18.650;2023-03-25T21:36:21;7.00;;;2.10;;
47483;SDS011;54076;50.322;18.650;2023-03-25T21:41:25;3.20;;;1.50;;
47483;SDS011;54076;50.322;18.650;2023-03-25T21:46:28;6.30;;;2.00;;
47483;SDS011;54076;50.322;18.650;2023-03-25T21:51:29;4.10;;;1.60;;
47483;SDS011;54076;50.322;18.650;2023-03-25T21:56:31;3.50;;;1.80;;
47483;SDS011;54076;50.322;18.650;2023-03-25T22:01:34;3.60;;;1.70;;
47483;SDS011;54076;50.322;18.650;2023-03-25T22:06:41;4.80;;;1.70;;
47483;SDS011;54076;50.322;18.650;2023-03-25T22:11:42;6.20;;;2.00;;
47483;SDS011;54076;50.322;18.650;2023-03-25T22:16:43;4.90;;;2.20;;
47483;SDS011;54076;50.322;18.650;2023-03-25T22:21:44;4.80;;;2.00;;
47483;SDS011;54076;50.322;18.650;2023-03-25T22:26:45;5.60;;;2.10;;
47483;SDS011;54076;50.322;18.650;2023-03-25T22:31:46;4.10;;;1.70;;
47483;SDS011;54076;50.322;18.650;2023-03-25T22:36:50;4.10;;;2.10;;
47483;SDS011;54076;50.322;18.650;2023-03-25T22:41:53;4.30;;;1.90;;
47483;SDS011;54076;50.322;18.650;2023-03-25T22:46:55;7.50;;;3.90;;
47483;SDS011;54076;50.322;18.650;2023-03-25T22:51:56;8.10;;;4.00;;
47483;SDS011;54076;50.322;18.650;2023-03-25T22:56:57;13.20;;;4.40;;
47483;SDS011;54076;50.322;18.650;2023-03-25T23:01:58;5.40;;;2.80;;
47483;SDS011;54076;50.322;18.650;2023-03-25T23:06:59;5.80;;;2.70;;
47483;SDS011;54076;50.322;18.650;2023-03-25T23:12:00;6.30;;;3.00;;
47483;SDS011;54076;50.322;18.650;2023-03-25T23:17:02;9.50;;;4.20;;
47483;SDS011;54076;50.322;18.650;2023-03-25T23:22:03;6.80;;;3.40;;
47483;SDS011;54076;50.322;18.650;2023-03-25T23:27:05;8.00;;;4.40;;
47483;SDS011;54076;50.322;18.650;2023-03-25T23:32:08;8.00;;;4.00;;
47483;SDS011;54076;50.322;18.650;2023-03-25T23:37:10;11.20;;;5.50;;
47483;SDS011;54076;50.322;18.650;2023-03-25T23:42:11;6.80;;;3.30;;
47483;SDS011;54076;50.322;18.650;2023-03-25T23:47:13;7.20;;;3.70;;
47483;SDS011;54076;50.322;18.650;2023-03-25T23:52:14;7.90;;;2.50;;
47483;SDS011;54076;50.322;18.650;2023-03-25T23:57:15;5.70;;;2.00;;
